<?xml version="1.0" encoding="UTF-8" standalone="no" ?>
<gpx xmlns="http://www.topografix.com/GPX/1/1" xmlns:xsi="http://www.w3.org/2001/XMLSchema-instance" xsi:schemaLocation="http://www.topografix.com/GPX/1/1 http://www.topografix.com/GPX/1/1/gpx.xsd" version="1.1" creator="VisuGPX - https://www.visugpx.com">
  <metadata>
    <name>VacancesDricouZoe</name>
  </metadata>
  <trk>
    <name><![CDATA[Journal actif: 2021-06-30 16:49]]></name>
    <trkseg>
      <trkpt lat="45.08268" lon="-1.18575">
        <ele>0.62</ele>
        <time>2021-06-30T18:49:48Z</time>
      </trkpt>
      <trkpt lat="45.08268" lon="-1.18576">
        <ele>0.14</ele>
        <time>2021-06-30T18:50:49Z</time>
      </trkpt>
      <trkpt lat="45.08273" lon="-1.18584">
        <ele>0.14</ele>
        <time>2021-06-30T18:51:03Z</time>
      </trkpt>
      <trkpt lat="45.08291" lon="-1.18583">
        <ele>0.14</ele>
        <time>2021-06-30T18:51:17Z</time>
      </trkpt>
      <trkpt lat="45.08304" lon="-1.18569">
        <ele>0.14</ele>
        <time>2021-06-30T18:51:30Z</time>
      </trkpt>
      <trkpt lat="45.08304" lon="-1.18569">
        <ele>0.14</ele>
        <time>2021-06-30T18:52:15Z</time>
      </trkpt>
      <trkpt lat="45.08304" lon="-1.18569">
        <ele>0.14</ele>
        <time>2021-06-30T18:52:16Z</time>
      </trkpt>
      <trkpt lat="45.08304" lon="-1.18569">
        <ele>0.14</ele>
        <time>2021-06-30T18:52:17Z</time>
      </trkpt>
      <trkpt lat="45.08303" lon="-1.18582">
        <ele>0.14</ele>
        <time>2021-06-30T18:52:18Z</time>
      </trkpt>
      <trkpt lat="45.08303" lon="-1.18585">
        <ele>0.14</ele>
        <time>2021-06-30T18:52:19Z</time>
      </trkpt>
      <trkpt lat="45.08302" lon="-1.18589">
        <ele>0.14</ele>
        <time>2021-06-30T18:52:20Z</time>
      </trkpt>
      <trkpt lat="45.08302" lon="-1.18594">
        <ele>-0.34</ele>
        <time>2021-06-30T18:52:21Z</time>
      </trkpt>
      <trkpt lat="45.08302" lon="-1.18598">
        <ele>-0.34</ele>
        <time>2021-06-30T18:52:22Z</time>
      </trkpt>
      <trkpt lat="45.08298" lon="-1.1864">
        <ele>-0.34</ele>
        <time>2021-06-30T18:52:30Z</time>
      </trkpt>
      <trkpt lat="45.08298" lon="-1.18646">
        <ele>-0.34</ele>
        <time>2021-06-30T18:52:31Z</time>
      </trkpt>
      <trkpt lat="45.08297" lon="-1.18658">
        <ele>-0.34</ele>
        <time>2021-06-30T18:52:32Z</time>
      </trkpt>
      <trkpt lat="45.08297" lon="-1.18658">
        <ele>-0.34</ele>
        <time>2021-06-30T18:52:33Z</time>
      </trkpt>
      <trkpt lat="45.0829" lon="-1.18672">
        <ele>-0.34</ele>
        <time>2021-06-30T18:52:34Z</time>
      </trkpt>
      <trkpt lat="45.08286" lon="-1.18673">
        <ele>-0.34</ele>
        <time>2021-06-30T18:52:35Z</time>
      </trkpt>
      <trkpt lat="45.08286" lon="-1.18673">
        <ele>-0.34</ele>
        <time>2021-06-30T18:52:36Z</time>
      </trkpt>
      <trkpt lat="45.08282" lon="-1.18674">
        <ele>-0.34</ele>
        <time>2021-06-30T18:52:37Z</time>
      </trkpt>
      <trkpt lat="45.08278" lon="-1.18676">
        <ele>-0.34</ele>
        <time>2021-06-30T18:52:38Z</time>
      </trkpt>
      <trkpt lat="45.08274" lon="-1.18677">
        <ele>-0.34</ele>
        <time>2021-06-30T18:52:39Z</time>
      </trkpt>
      <trkpt lat="45.0827" lon="-1.18679">
        <ele>-0.34</ele>
        <time>2021-06-30T18:52:40Z</time>
      </trkpt>
      <trkpt lat="45.08265" lon="-1.18681">
        <ele>-0.34</ele>
        <time>2021-06-30T18:52:41Z</time>
      </trkpt>
      <trkpt lat="45.08191" lon="-1.1871">
        <ele>-0.34</ele>
        <time>2021-06-30T18:52:55Z</time>
      </trkpt>
      <trkpt lat="45.08127" lon="-1.18737">
        <ele>0.14</ele>
        <time>2021-06-30T18:53:10Z</time>
      </trkpt>
      <trkpt lat="45.08123" lon="-1.18739">
        <ele>1.58</ele>
        <time>2021-06-30T18:53:19Z</time>
      </trkpt>
      <trkpt lat="45.0812" lon="-1.18756">
        <ele>1.58</ele>
        <time>2021-06-30T18:53:20Z</time>
      </trkpt>
      <trkpt lat="45.08139" lon="-1.18819">
        <ele>1.1</ele>
        <time>2021-06-30T18:53:34Z</time>
      </trkpt>
      <trkpt lat="45.08166" lon="-1.18902">
        <ele>0.14</ele>
        <time>2021-06-30T18:53:53Z</time>
      </trkpt>
      <trkpt lat="45.08177" lon="-1.18946">
        <ele>-0.34</ele>
        <time>2021-06-30T18:54:04Z</time>
      </trkpt>
      <trkpt lat="45.08176" lon="-1.1895">
        <ele>-0.34</ele>
        <time>2021-06-30T18:54:05Z</time>
      </trkpt>
      <trkpt lat="45.08176" lon="-1.18953">
        <ele>-0.34</ele>
        <time>2021-06-30T18:54:06Z</time>
      </trkpt>
      <trkpt lat="45.08175" lon="-1.18955">
        <ele>-0.82</ele>
        <time>2021-06-30T18:54:07Z</time>
      </trkpt>
      <trkpt lat="45.08173" lon="-1.18953">
        <ele>-0.82</ele>
        <time>2021-06-30T18:54:08Z</time>
      </trkpt>
      <trkpt lat="45.08171" lon="-1.1895">
        <ele>-0.34</ele>
        <time>2021-06-30T18:54:09Z</time>
      </trkpt>
      <trkpt lat="45.08169" lon="-1.18949">
        <ele>-0.82</ele>
        <time>2021-06-30T18:54:10Z</time>
      </trkpt>
      <trkpt lat="45.08168" lon="-1.18944">
        <ele>-0.34</ele>
        <time>2021-06-30T18:54:11Z</time>
      </trkpt>
      <trkpt lat="45.08166" lon="-1.1894">
        <ele>-0.34</ele>
        <time>2021-06-30T18:54:12Z</time>
      </trkpt>
      <trkpt lat="45.08165" lon="-1.18936">
        <ele>-0.34</ele>
        <time>2021-06-30T18:54:13Z</time>
      </trkpt>
      <trkpt lat="45.08148" lon="-1.18888">
        <ele>0.62</ele>
        <time>2021-06-30T18:54:29Z</time>
      </trkpt>
      <trkpt lat="45.08119" lon="-1.18804">
        <ele>2.06</ele>
        <time>2021-06-30T18:54:45Z</time>
      </trkpt>
      <trkpt lat="45.08113" lon="-1.18748">
        <ele>3.02</ele>
        <time>2021-06-30T18:54:58Z</time>
      </trkpt>
      <trkpt lat="45.0815" lon="-1.18727">
        <ele>2.54</ele>
        <time>2021-06-30T18:55:08Z</time>
      </trkpt>
      <trkpt lat="45.0825" lon="-1.18686">
        <ele>3.02</ele>
        <time>2021-06-30T18:55:26Z</time>
      </trkpt>
      <trkpt lat="45.08266" lon="-1.1868">
        <ele>2.54</ele>
        <time>2021-06-30T18:55:29Z</time>
      </trkpt>
      <trkpt lat="45.08271" lon="-1.18678">
        <ele>2.54</ele>
        <time>2021-06-30T18:55:30Z</time>
      </trkpt>
      <trkpt lat="45.08277" lon="-1.18676">
        <ele>2.54</ele>
        <time>2021-06-30T18:55:31Z</time>
      </trkpt>
      <trkpt lat="45.08282" lon="-1.18674">
        <ele>2.54</ele>
        <time>2021-06-30T18:55:32Z</time>
      </trkpt>
      <trkpt lat="45.08288" lon="-1.18673">
        <ele>2.54</ele>
        <time>2021-06-30T18:55:33Z</time>
      </trkpt>
      <trkpt lat="45.08293" lon="-1.18671">
        <ele>2.54</ele>
        <time>2021-06-30T18:55:34Z</time>
      </trkpt>
      <trkpt lat="45.08297" lon="-1.18657">
        <ele>2.54</ele>
        <time>2021-06-30T18:55:35Z</time>
      </trkpt>
      <trkpt lat="45.08297" lon="-1.18649">
        <ele>2.54</ele>
        <time>2021-06-30T18:55:36Z</time>
      </trkpt>
      <trkpt lat="45.08298" lon="-1.18641">
        <ele>2.54</ele>
        <time>2021-06-30T18:55:37Z</time>
      </trkpt>
      <trkpt lat="45.08299" lon="-1.18632">
        <ele>2.54</ele>
        <time>2021-06-30T18:55:38Z</time>
      </trkpt>
      <trkpt lat="45.08298" lon="-1.18493">
        <ele>3.5</ele>
        <time>2021-06-30T18:55:50Z</time>
      </trkpt>
      <trkpt lat="45.08262" lon="-1.18391">
        <ele>3.98</ele>
        <time>2021-06-30T18:56:00Z</time>
      </trkpt>
      <trkpt lat="45.08232" lon="-1.18323">
        <ele>0.62</ele>
        <time>2021-06-30T18:56:05Z</time>
      </trkpt>
      <trkpt lat="45.08175" lon="-1.18161">
        <ele>3.02</ele>
        <time>2021-06-30T18:56:15Z</time>
      </trkpt>
      <trkpt lat="45.08138" lon="-1.18061">
        <ele>4.94</ele>
        <time>2021-06-30T18:56:21Z</time>
      </trkpt>
      <trkpt lat="45.08133" lon="-1.18047">
        <ele>4.94</ele>
        <time>2021-06-30T18:56:22Z</time>
      </trkpt>
      <trkpt lat="45.08127" lon="-1.1803">
        <ele>3.02</ele>
        <time>2021-06-30T18:56:23Z</time>
      </trkpt>
      <trkpt lat="45.08124" lon="-1.18014">
        <ele>2.54</ele>
        <time>2021-06-30T18:56:24Z</time>
      </trkpt>
      <trkpt lat="45.08121" lon="-1.17996">
        <ele>3.98</ele>
        <time>2021-06-30T18:56:25Z</time>
      </trkpt>
      <trkpt lat="45.0812" lon="-1.17979">
        <ele>5.42</ele>
        <time>2021-06-30T18:56:26Z</time>
      </trkpt>
      <trkpt lat="45.08129" lon="-1.17801">
        <ele>8.31</ele>
        <time>2021-06-30T18:56:36Z</time>
      </trkpt>
      <trkpt lat="45.08127" lon="-1.1777">
        <ele>7.83</ele>
        <time>2021-06-30T18:56:38Z</time>
      </trkpt>
      <trkpt lat="45.08126" lon="-1.17755">
        <ele>6.87</ele>
        <time>2021-06-30T18:56:39Z</time>
      </trkpt>
      <trkpt lat="45.08079" lon="-1.17607">
        <ele>3.98</ele>
        <time>2021-06-30T18:56:48Z</time>
      </trkpt>
      <trkpt lat="45.08014" lon="-1.17443">
        <ele>6.87</ele>
        <time>2021-06-30T18:56:58Z</time>
      </trkpt>
      <trkpt lat="45.07932" lon="-1.17258">
        <ele>9.75</ele>
        <time>2021-06-30T18:57:09Z</time>
      </trkpt>
      <trkpt lat="45.07867" lon="-1.17108">
        <ele>11.67</ele>
        <time>2021-06-30T18:57:19Z</time>
      </trkpt>
      <trkpt lat="45.07862" lon="-1.17092">
        <ele>11.19</ele>
        <time>2021-06-30T18:57:20Z</time>
      </trkpt>
      <trkpt lat="45.07826" lon="-1.16832">
        <ele>22.73</ele>
        <time>2021-06-30T18:57:34Z</time>
      </trkpt>
      <trkpt lat="45.07816" lon="-1.16584">
        <ele>28.98</ele>
        <time>2021-06-30T18:57:48Z</time>
      </trkpt>
      <trkpt lat="45.0781" lon="-1.1652">
        <ele>33.78</ele>
        <time>2021-06-30T18:57:52Z</time>
      </trkpt>
      <trkpt lat="45.07806" lon="-1.16506">
        <ele>32.34</ele>
        <time>2021-06-30T18:57:53Z</time>
      </trkpt>
      <trkpt lat="45.07801" lon="-1.16492">
        <ele>31.86</ele>
        <time>2021-06-30T18:57:54Z</time>
      </trkpt>
      <trkpt lat="45.07794" lon="-1.16478">
        <ele>32.34</ele>
        <time>2021-06-30T18:57:55Z</time>
      </trkpt>
      <trkpt lat="45.07787" lon="-1.16467">
        <ele>33.78</ele>
        <time>2021-06-30T18:57:56Z</time>
      </trkpt>
      <trkpt lat="45.07779" lon="-1.16457">
        <ele>34.74</ele>
        <time>2021-06-30T18:57:57Z</time>
      </trkpt>
      <trkpt lat="45.077" lon="-1.16343">
        <ele>35.71</ele>
        <time>2021-06-30T18:58:06Z</time>
      </trkpt>
      <trkpt lat="45.07671" lon="-1.16241">
        <ele>29.46</ele>
        <time>2021-06-30T18:58:12Z</time>
      </trkpt>
      <trkpt lat="45.07668" lon="-1.16222">
        <ele>28.5</ele>
        <time>2021-06-30T18:58:13Z</time>
      </trkpt>
      <trkpt lat="45.07665" lon="-1.16204">
        <ele>28.02</ele>
        <time>2021-06-30T18:58:14Z</time>
      </trkpt>
      <trkpt lat="45.07665" lon="-1.16187">
        <ele>27.53</ele>
        <time>2021-06-30T18:58:15Z</time>
      </trkpt>
      <trkpt lat="45.07666" lon="-1.16167">
        <ele>26.57</ele>
        <time>2021-06-30T18:58:16Z</time>
      </trkpt>
      <trkpt lat="45.07668" lon="-1.16108">
        <ele>24.17</ele>
        <time>2021-06-30T18:58:19Z</time>
      </trkpt>
      <trkpt lat="45.07666" lon="-1.16089">
        <ele>23.21</ele>
        <time>2021-06-30T18:58:20Z</time>
      </trkpt>
      <trkpt lat="45.07626" lon="-1.15913">
        <ele>20.32</ele>
        <time>2021-06-30T18:58:28Z</time>
      </trkpt>
      <trkpt lat="45.07541" lon="-1.15615">
        <ele>15.04</ele>
        <time>2021-06-30T18:58:44Z</time>
      </trkpt>
      <trkpt lat="45.07477" lon="-1.15422">
        <ele>16.96</ele>
        <time>2021-06-30T18:58:55Z</time>
      </trkpt>
      <trkpt lat="45.07393" lon="-1.15232">
        <ele>20.32</ele>
        <time>2021-06-30T18:59:08Z</time>
      </trkpt>
      <trkpt lat="45.07301" lon="-1.15051">
        <ele>28.02</ele>
        <time>2021-06-30T18:59:23Z</time>
      </trkpt>
      <trkpt lat="45.07252" lon="-1.14944">
        <ele>28.98</ele>
        <time>2021-06-30T18:59:34Z</time>
      </trkpt>
      <trkpt lat="45.07233" lon="-1.14902">
        <ele>27.05</ele>
        <time>2021-06-30T18:59:39Z</time>
      </trkpt>
      <trkpt lat="45.07232" lon="-1.14892">
        <ele>26.57</ele>
        <time>2021-06-30T18:59:40Z</time>
      </trkpt>
      <trkpt lat="45.0723" lon="-1.14883">
        <ele>26.57</ele>
        <time>2021-06-30T18:59:41Z</time>
      </trkpt>
      <trkpt lat="45.07229" lon="-1.14874">
        <ele>26.09</ele>
        <time>2021-06-30T18:59:42Z</time>
      </trkpt>
      <trkpt lat="45.0723" lon="-1.14865">
        <ele>26.57</ele>
        <time>2021-06-30T18:59:43Z</time>
      </trkpt>
      <trkpt lat="45.07241" lon="-1.14727">
        <ele>18.4</ele>
        <time>2021-06-30T18:59:58Z</time>
      </trkpt>
      <trkpt lat="45.07242" lon="-1.1472">
        <ele>17.92</ele>
        <time>2021-06-30T18:59:59Z</time>
      </trkpt>
      <trkpt lat="45.07242" lon="-1.14717">
        <ele>17.92</ele>
        <time>2021-06-30T19:00:00Z</time>
      </trkpt>
      <trkpt lat="45.07228" lon="-1.14694">
        <ele>16.96</ele>
        <time>2021-06-30T19:00:03Z</time>
      </trkpt>
      <trkpt lat="45.07227" lon="-1.14687">
        <ele>16.96</ele>
        <time>2021-06-30T19:00:04Z</time>
      </trkpt>
      <trkpt lat="45.0723" lon="-1.14678">
        <ele>16.96</ele>
        <time>2021-06-30T19:00:05Z</time>
      </trkpt>
      <trkpt lat="45.07233" lon="-1.14672">
        <ele>16.48</ele>
        <time>2021-06-30T19:00:06Z</time>
      </trkpt>
      <trkpt lat="45.07236" lon="-1.14668">
        <ele>16.48</ele>
        <time>2021-06-30T19:00:07Z</time>
      </trkpt>
      <trkpt lat="45.0724" lon="-1.14666">
        <ele>16</ele>
        <time>2021-06-30T19:00:08Z</time>
      </trkpt>
      <trkpt lat="45.07245" lon="-1.14663">
        <ele>15.52</ele>
        <time>2021-06-30T19:00:09Z</time>
      </trkpt>
      <trkpt lat="45.0725" lon="-1.14664">
        <ele>15.04</ele>
        <time>2021-06-30T19:00:10Z</time>
      </trkpt>
      <trkpt lat="45.07255" lon="-1.14666">
        <ele>15.04</ele>
        <time>2021-06-30T19:00:11Z</time>
      </trkpt>
      <trkpt lat="45.07324" lon="-1.14697">
        <ele>11.19</ele>
        <time>2021-06-30T19:00:23Z</time>
      </trkpt>
      <trkpt lat="45.07415" lon="-1.1471">
        <ele>14.08</ele>
        <time>2021-06-30T19:00:33Z</time>
      </trkpt>
      <trkpt lat="45.07504" lon="-1.14707">
        <ele>11.19</ele>
        <time>2021-06-30T19:00:43Z</time>
      </trkpt>
      <trkpt lat="45.07638" lon="-1.14698">
        <ele>10.23</ele>
        <time>2021-06-30T19:00:58Z</time>
      </trkpt>
      <trkpt lat="45.07743" lon="-1.14674">
        <ele>9.27</ele>
        <time>2021-06-30T19:01:11Z</time>
      </trkpt>
      <trkpt lat="45.07881" lon="-1.14586">
        <ele>12.15</ele>
        <time>2021-06-30T19:01:28Z</time>
      </trkpt>
      <trkpt lat="45.07956" lon="-1.1455">
        <ele>12.63</ele>
        <time>2021-06-30T19:01:37Z</time>
      </trkpt>
      <trkpt lat="45.07967" lon="-1.14548">
        <ele>12.15</ele>
        <time>2021-06-30T19:01:38Z</time>
      </trkpt>
      <trkpt lat="45.08073" lon="-1.14567">
        <ele>11.67</ele>
        <time>2021-06-30T19:01:48Z</time>
      </trkpt>
      <trkpt lat="45.08172" lon="-1.14655">
        <ele>9.27</ele>
        <time>2021-06-30T19:01:59Z</time>
      </trkpt>
      <trkpt lat="45.08247" lon="-1.14715">
        <ele>9.27</ele>
        <time>2021-06-30T19:02:08Z</time>
      </trkpt>
      <trkpt lat="45.08345" lon="-1.14755">
        <ele>11.67</ele>
        <time>2021-06-30T19:02:17Z</time>
      </trkpt>
      <trkpt lat="45.08467" lon="-1.14787">
        <ele>10.71</ele>
        <time>2021-06-30T19:02:30Z</time>
      </trkpt>
      <trkpt lat="45.08512" lon="-1.14799">
        <ele>9.75</ele>
        <time>2021-06-30T19:02:39Z</time>
      </trkpt>
      <trkpt lat="45.08549" lon="-1.14811">
        <ele>11.19</ele>
        <time>2021-06-30T19:02:52Z</time>
      </trkpt>
      <trkpt lat="45.08601" lon="-1.14827">
        <ele>9.27</ele>
        <time>2021-06-30T19:03:03Z</time>
      </trkpt>
      <trkpt lat="45.08666" lon="-1.14848">
        <ele>10.71</ele>
        <time>2021-06-30T19:03:16Z</time>
      </trkpt>
      <trkpt lat="45.08673" lon="-1.1485">
        <ele>11.67</ele>
        <time>2021-06-30T19:03:19Z</time>
      </trkpt>
      <trkpt lat="45.08674" lon="-1.14851">
        <ele>10.71</ele>
        <time>2021-06-30T19:03:20Z</time>
      </trkpt>
      <trkpt lat="45.08673" lon="-1.1485">
        <ele>11.19</ele>
        <time>2021-06-30T19:03:23Z</time>
      </trkpt>
      <trkpt lat="45.08671" lon="-1.1485">
        <ele>15.52</ele>
        <time>2021-06-30T19:03:36Z</time>
      </trkpt>
      <trkpt lat="45.08667" lon="-1.14849">
        <ele>16</ele>
        <time>2021-06-30T19:03:46Z</time>
      </trkpt>
      <trkpt lat="45.08667" lon="-1.14849">
        <ele>16</ele>
        <time>2021-06-30T19:05:20Z</time>
      </trkpt>
    </trkseg>
  </trk>
</gpx>